sensor_id;sensor_type;location;lat;lon;timestamp;P1;durP1;ratioP1;P2;durP2;ratioP2
32613;SDS011;19031;51.400;6.770;2024-01-10T00:01:55;12.80;;;5.80;;
32613;SDS011;19031;51.400;6.770;2024-01-10T00:04:21;11.38;;;5.15;;
32613;SDS011;19031;51.400;6.770;2024-01-10T00:06:46;14.57;;;5.93;;
32613;SDS011;19031;51.400;6.770;2024-01-10T00:09:12;12.73;;;5.70;;
32613;SDS011;19031;51.400;6.770;2024-01-10T00:11:37;12.15;;;5.20;;
32613;SDS011;19031;51.400;6.770;2024-01-10T00:14:03;9.93;;;4.88;;
32613;SDS011;19031;51.400;6.770;2024-01-10T00:16:29;12.50;;;5.40;;
32613;SDS011;19031;51.400;6.770;2024-01-10T00:18:55;10.20;;;5.43;;
32613;SDS011;19031;51.400;6.770;2024-01-10T00:21:20;10.93;;;4.93;;
32613;SDS011;19031;51.400;6.770;2024-01-10T00:23:46;10.43;;;4.75;;
32613;SDS011;19031;51.400;6.770;2024-01-10T00:26:11;9.48;;;4.53;;
32613;SDS011;19031;51.400;6.770;2024-01-10T00:28:37;12.30;;;5.70;;
32613;SDS011;19031;51.400;6.770;2024-01-10T00:31:02;12.75;;;5.22;;
32613;SDS011;19031;51.400;6.770;2024-01-10T00:33:28;15.68;;;5.22;;
32613;SDS011;19031;51.400;6.770;2024-01-10T00:35:53;12.68;;;6.03;;
32613;SDS011;19031;51.400;6.770;2024-01-10T00:38:19;12.60;;;4.57;;
32613;SDS011;19031;51.400;6.770;2024-01-10T00:40:45;12.55;;;5.13;;
32613;SDS011;19031;51.400;6.770;2024-01-10T00:43:10;14.60;;;5.25;;
32613;SDS011;19031;51.400;6.770;2024-01-10T00:45:36;10.15;;;4.15;;
32613;SDS011;19031;51.400;6.770;2024-01-10T00:48:01;15.57;;;5.38;;
32613;SDS011;19031;51.400;6.770;2024-01-10T00:50:27;11.02;;;5.35;;
32613;SDS011;19031;51.400;6.770;2024-01-10T00:52:52;10.00;;;4.68;;
32613;SDS011;19031;51.400;6.770;2024-01-10T00:55:18;11.98;;;5.57;;
32613;SDS011;19031;51.400;6.770;2024-01-10T00:57:43;16.20;;;5.78;;
32613;SDS011;19031;51.400;6.770;2024-01-10T01:00:09;12.73;;;5.47;;
32613;SDS011;19031;51.400;6.770;2024-01-10T01:02:36;10.95;;;4.63;;
32613;SDS011;19031;51.400;6.770;2024-01-10T01:05:04;12.05;;;4.85;;
32613;SDS011;19031;51.400;6.770;2024-01-10T01:07:30;8.73;;;4.53;;
32613;SDS011;19031;51.400;6.770;2024-01-10T01:09:56;10.60;;;5.10;;
32613;SDS011;19031;51.400;6.770;2024-01-10T01:12:21;11.15;;;5.47;;
32613;SDS011;19031;51.400;6.770;2024-01-10T01:14:47;13.18;;;4.68;;
32613;SDS011;19031;51.400;6.770;2024-01-10T01:17:12;9.77;;;4.57;;
32613;SDS011;19031;51.400;6.770;2024-01-10T01:19:38;9.82;;;4.78;;
32613;SDS011;19031;51.400;6.770;2024-01-10T01:22:03;13.50;;;5.50;;
32613;SDS011;19031;51.400;6.770;2024-01-10T01:24:29;9.20;;;4.45;;
32613;SDS011;19031;51.400;6.770;2024-01-10T01:26:54;12.07;;;4.45;;
32613;SDS011;19031;51.400;6.770;2024-01-10T01:29:20;8.55;;;4.38;;
32613;SDS011;19031;51.400;6.770;2024-01-10T01:31:46;10.65;;;3.72;;
32613;SDS011;19031;51.400;6.770;2024-01-10T01:34:12;13.65;;;4.85;;
32613;SDS011;19031;51.400;6.770;2024-01-10T01:36:37;12.77;;;4.82;;
32613;SDS011;19031;51.400;6.770;2024-01-10T01:39:03;9.93;;;4.72;;
32613;SDS011;19031;51.400;6.770;2024-01-10T01:41:28;11.10;;;5.68;;
32613;SDS011;19031;51.400;6.770;2024-01-10T01:43:54;10.45;;;4.45;;
32613;SDS011;19031;51.400;6.770;2024-01-10T01:46:19;12.77;;;5.32;;
32613;SDS011;19031;51.400;6.770;2024-01-10T01:48:46;14.38;;;5.20;;
32613;SDS011;19031;51.400;6.770;2024-01-10T01:51:12;10.48;;;4.10;;
32613;SDS011;19031;51.400;6.770;2024-01-10T01:53:40;15.48;;;4.70;;
32613;SDS011;19031;51.400;6.770;2024-01-10T01:56:08;16.90;;;4.75;;
32613;SDS011;19031;51.400;6.770;2024-01-10T01:58:36;10.70;;;5.03;;
32613;SDS011;19031;51.400;6.770;2024-01-10T02:01:02;13.20;;;5.60;;
32613;SDS011;19031;51.400;6.770;2024-01-10T02:03:30;11.35;;;4.70;;
32613;SDS011;19031;51.400;6.770;2024-01-10T02:05:57;11.70;;;5.20;;
32613;SDS011;19031;51.400;6.770;2024-01-10T02:08:23;10.90;;;5.05;;
32613;SDS011;19031;51.400;6.770;2024-01-10T02:10:49;13.85;;;4.70;;
32613;SDS011;19031;51.400;6.770;2024-01-10T02:13:15;13.45;;;4.75;;
32613;SDS011;19031;51.400;6.770;2024-01-10T02:15:41;15.05;;;5.38;;
32613;SDS011;19031;51.400;6.770;2024-01-10T02:18:08;11.32;;;5.13;;
32613;SDS011;19031;51.400;6.770;2024-01-10T02:20:37;13.05;;;5.40;;
32613;SDS011;19031;51.400;6.770;2024-01-10T02:23:02;11.23;;;4.85;;
32613;SDS011;19031;51.400;6.770;2024-01-10T02:25:28;14.43;;;5.22;;
32613;SDS011;19031;51.400;6.770;2024-01-10T02:27:53;11.50;;;4.60;;
32613;SDS011;19031;51.400;6.770;2024-01-10T02:30:19;14.52;;;5.00;;
32613;SDS011;19031;51.400;6.770;2024-01-10T02:32:44;13.82;;;4.80;;
32613;SDS011;19031;51.400;6.770;2024-01-10T02:35:10;14.30;;;6.13;;
32613;SDS011;19031;51.400;6.770;2024-01-10T02:37:35;11.95;;;4.97;;
32613;SDS011;19031;51.400;6.770;2024-01-10T02:40:01;11.45;;;4.95;;
32613;SDS011;19031;51.400;6.770;2024-01-10T02:42:27;11.32;;;5.57;;
32613;SDS011;19031;51.400;6.770;2024-01-10T02:44:53;11.73;;;5.28;;
32613;SDS011;19031;51.400;6.770;2024-01-10T02:47:19;11.38;;;4.85;;
32613;SDS011;19031;51.400;6.770;2024-01-10T02:49:44;15.38;;;5.50;;
32613;SDS011;19031;51.400;6.770;2024-01-10T02:52:10;9.93;;;5.10;;
32613;SDS011;19031;51.400;6.770;2024-01-10T02:54:35;10.55;;;4.95;;
32613;SDS011;19031;51.400;6.770;2024-01-10T02:57:01;13.32;;;5.30;;
32613;SDS011;19031;51.400;6.770;2024-01-10T02:59:27;12.57;;;5.00;;
32613;SDS011;19031;51.400;6.770;2024-01-10T03:01:52;11.15;;;5.18;;
32613;SDS011;19031;51.400;6.770;2024-01-10T03:04:18;12.32;;;5.25;;
32613;SDS011;19031;51.400;6.770;2024-01-10T03:06:43;14.93;;;5.78;;
32613;SDS011;19031;51.400;6.770;2024-01-10T03:09:10;16.90;;;6.18;;
32613;SDS011;19031;51.400;6.770;2024-01-10T03:11:35;11.27;;;5.53;;
32613;SDS011;19031;51.400;6.770;2024-01-10T03:14:02;15.07;;;5.93;;
32613;SDS011;19031;51.400;6.770;2024-01-10T03:16:29;12.35;;;5.75;;
32613;SDS011;19031;51.400;6.770;2024-01-10T03:18:55;11.15;;;5.13;;
32613;SDS011;19031;51.400;6.770;2024-01-10T03:21:20;13.30;;;6.45;;
32613;SDS011;19031;51.400;6.770;2024-01-10T03:23:50;13.30;;;5.70;;
32613;SDS011;19031;51.400;6.770;2024-01-10T03:26:16;12.52;;;5.20;;
32613;SDS011;19031;51.400;6.770;2024-01-10T03:28:42;11.57;;;4.80;;
32613;SDS011;19031;51.400;6.770;2024-01-10T03:31:07;15.10;;;6.28;;
32613;SDS011;19031;51.400;6.770;2024-01-10T03:33:33;14.77;;;5.10;;
32613;SDS011;19031;51.400;6.770;2024-01-10T03:35:58;13.15;;;5.72;;
32613;SDS011;19031;51.400;6.770;2024-01-10T03:38:24;10.50;;;5.40;;
32613;SDS011;19031;51.400;6.770;2024-01-10T03:40:49;15.68;;;6.05;;
32613;SDS011;19031;51.400;6.770;2024-01-10T03:43:15;14.27;;;5.38;;
32613;SDS011;19031;51.400;6.770;2024-01-10T03:45:41;16.45;;;5.50;;
32613;SDS011;19031;51.400;6.770;2024-01-10T03:48:07;11.85;;;5.50;;
32613;SDS011;19031;51.400;6.770;2024-01-10T03:50:33;10.38;;;5.22;;
32613;SDS011;19031;51.400;6.770;2024-01-10T03:52:58;9.55;;;4.47;;
32613;SDS011;19031;51.400;6.770;2024-01-10T03:55:24;12.02;;;5.57;;
32613;SDS011;19031;51.400;6.770;2024-01-10T03:57:49;14.25;;;5.57;;
32613;SDS011;19031;51.400;6.770;2024-01-10T04:00:15;14.57;;;6.85;;
32613;SDS011;19031;51.400;6.770;2024-01-10T04:02:41;12.32;;;5.50;;
32613;SDS011;19031;51.400;6.770;2024-01-10T04:05:07;13.23;;;5.53;;
32613;SDS011;19031;51.400;6.770;2024-01-10T04:07:34;16.13;;;6.03;;
32613;SDS011;19031;51.400;6.770;2024-01-10T04:10:01;12.43;;;5.90;;
32613;SDS011;19031;51.400;6.770;2024-01-10T04:12:27;15.55;;;5.75;;
32613;SDS011;19031;51.400;6.770;2024-01-10T04:14:53;14.18;;;5.65;;
32613;SDS011;19031;51.400;6.770;2024-01-10T04:17:18;13.77;;;6.20;;
32613;SDS011;19031;51.400;6.770;2024-01-10T04:19:44;14.50;;;5.63;;
32613;SDS011;19031;51.400;6.770;2024-01-10T04:22:09;12.80;;;5.85;;
32613;SDS011;19031;51.400;6.770;2024-01-10T04:24:35;18.50;;;6.05;;
32613;SDS011;19031;51.400;6.770;2024-01-10T04:27:01;12.32;;;5.10;;
32613;SDS011;19031;51.400;6.770;2024-01-10T04:29:27;17.52;;;6.88;;
32613;SDS011;19031;51.400;6.770;2024-01-10T04:31:53;11.90;;;5.32;;
32613;SDS011;19031;51.400;6.770;2024-01-10T04:34:18;12.13;;;5.13;;
32613;SDS011;19031;51.400;6.770;2024-01-10T04:36:44;17.90;;;6.43;;
32613;SDS011;19031;51.400;6.770;2024-01-10T04:39:10;13.23;;;6.45;;
32613;SDS011;19031;51.400;6.770;2024-01-10T04:41:35;17.40;;;5.68;;
32613;SDS011;19031;51.400;6.770;2024-01-10T04:44:01;12.98;;;5.60;;
32613;SDS011;19031;51.400;6.770;2024-01-10T04:46:27;18.75;;;6.28;;
32613;SDS011;19031;51.400;6.770;2024-01-10T04:48:52;16.67;;;6.22;;
32613;SDS011;19031;51.400;6.770;2024-01-10T04:51:18;11.07;;;5.47;;
32613;SDS011;19031;51.400;6.770;2024-01-10T04:53:43;17.20;;;6.32;;
32613;SDS011;19031;51.400;6.770;2024-01-10T04:56:09;15.77;;;7.05;;
32613;SDS011;19031;51.400;6.770;2024-01-10T04:58:34;14.43;;;6.35;;
32613;SDS011;19031;51.400;6.770;2024-01-10T05:01:03;13.52;;;6.38;;
32613;SDS011;19031;51.400;6.770;2024-01-10T05:03:29;13.68;;;5.88;;
32613;SDS011;19031;51.400;6.770;2024-01-10T05:05:54;13.18;;;5.95;;
32613;SDS011;19031;51.400;6.770;2024-01-10T05:08:20;13.07;;;6.10;;
32613;SDS011;19031;51.400;6.770;2024-01-10T05:10:45;16.42;;;6.75;;
32613;SDS011;19031;51.400;6.770;2024-01-10T05:13:12;15.25;;;6.65;;
32613;SDS011;19031;51.400;6.770;2024-01-10T05:15:37;20.10;;;6.55;;
32613;SDS011;19031;51.400;6.770;2024-01-10T05:18:03;18.73;;;6.18;;
32613;SDS011;19031;51.400;6.770;2024-01-10T05:20:29;13.77;;;6.53;;
32613;SDS011;19031;51.400;6.770;2024-01-10T05:22:54;13.38;;;6.45;;
32613;SDS011;19031;51.400;6.770;2024-01-10T05:25:23;19.65;;;6.93;;
32613;SDS011;19031;51.400;6.770;2024-01-10T05:27:49;16.38;;;6.65;;
32613;SDS011;19031;51.400;6.770;2024-01-10T05:30:15;14.18;;;5.72;;
32613;SDS011;19031;51.400;6.770;2024-01-10T05:32:42;11.75;;;5.78;;
32613;SDS011;19031;51.400;6.770;2024-01-10T05:35:09;18.38;;;6.72;;
32613;SDS011;19031;51.400;6.770;2024-01-10T05:37:35;16.02;;;5.75;;
32613;SDS011;19031;51.400;6.770;2024-01-10T05:40:01;15.75;;;6.88;;
32613;SDS011;19031;51.400;6.770;2024-01-10T05:42:27;15.82;;;6.88;;
32613;SDS011;19031;51.400;6.770;2024-01-10T05:44:52;16.60;;;6.25;;
32613;SDS011;19031;51.400;6.770;2024-01-10T05:47:18;15.98;;;6.63;;
32613;SDS011;19031;51.400;6.770;2024-01-10T05:49:43;17.90;;;7.38;;
32613;SDS011;19031;51.400;6.770;2024-01-10T05:52:09;15.15;;;6.47;;
32613;SDS011;19031;51.400;6.770;2024-01-10T05:54:35;17.23;;;7.15;;
32613;SDS011;19031;51.400;6.770;2024-01-10T05:57:00;13.52;;;6.45;;
32613;SDS011;19031;51.400;6.770;2024-01-10T05:59:27;18.02;;;6.32;;
32613;SDS011;19031;51.400;6.770;2024-01-10T06:01:53;20.20;;;6.72;;
32613;SDS011;19031;51.400;6.770;2024-01-10T06:04:18;17.10;;;6.90;;
32613;SDS011;19031;51.400;6.770;2024-01-10T06:06:44;17.23;;;6.75;;
32613;SDS011;19031;51.400;6.770;2024-01-10T06:09:10;17.15;;;6.95;;
32613;SDS011;19031;51.400;6.770;2024-01-10T06:11:42;18.33;;;6.38;;
32613;SDS011;19031;51.400;6.770;2024-01-10T06:14:08;16.85;;;6.53;;
32613;SDS011;19031;51.400;6.770;2024-01-10T06:16:34;16.90;;;6.57;;
32613;SDS011;19031;51.400;6.770;2024-01-10T06:19:00;19.40;;;8.15;;
32613;SDS011;19031;51.400;6.770;2024-01-10T06:21:26;19.85;;;7.10;;
32613;SDS011;19031;51.400;6.770;2024-01-10T06:23:51;14.23;;;6.40;;
32613;SDS011;19031;51.400;6.770;2024-01-10T06:26:17;18.00;;;7.05;;
32613;SDS011;19031;51.400;6.770;2024-01-10T06:28:43;16.17;;;7.18;;
32613;SDS011;19031;51.400;6.770;2024-01-10T06:31:08;14.20;;;6.60;;
32613;SDS011;19031;51.400;6.770;2024-01-10T06:33:34;15.57;;;7.15;;
32613;SDS011;19031;51.400;6.770;2024-01-10T06:35:59;22.83;;;7.10;;
32613;SDS011;19031;51.400;6.770;2024-01-10T06:38:25;17.50;;;6.50;;
32613;SDS011;19031;51.400;6.770;2024-01-10T06:40:51;16.55;;;7.40;;
32613;SDS011;19031;51.400;6.770;2024-01-10T06:43:16;18.05;;;7.00;;
32613;SDS011;19031;51.400;6.770;2024-01-10T06:45:42;17.02;;;7.00;;
32613;SDS011;19031;51.400;6.770;2024-01-10T06:48:08;14.85;;;6.25;;
32613;SDS011;19031;51.400;6.770;2024-01-10T06:50:34;19.30;;;6.93;;
32613;SDS011;19031;51.400;6.770;2024-01-10T06:52:59;20.52;;;8.35;;
32613;SDS011;19031;51.400;6.770;2024-01-10T06:55:26;18.50;;;7.20;;
32613;SDS011;19031;51.400;6.770;2024-01-10T06:57:54;23.73;;;7.78;;
32613;SDS011;19031;51.400;6.770;2024-01-10T07:00:20;18.08;;;6.97;;
32613;SDS011;19031;51.400;6.770;2024-01-10T07:02:47;17.60;;;7.25;;
32613;SDS011;19031;51.400;6.770;2024-01-10T07:05:14;16.48;;;7.57;;
32613;SDS011;19031;51.400;6.770;2024-01-10T07:07:39;24.80;;;8.95;;
32613;SDS011;19031;51.400;6.770;2024-01-10T07:10:06;17.80;;;8.45;;
32613;SDS011;19031;51.400;6.770;2024-01-10T07:12:32;19.70;;;7.20;;
32613;SDS011;19031;51.400;6.770;2024-01-10T07:14:59;15.30;;;6.40;;
32613;SDS011;19031;51.400;6.770;2024-01-10T07:17:25;20.05;;;7.80;;
32613;SDS011;19031;51.400;6.770;2024-01-10T07:19:50;14.10;;;7.13;;
32613;SDS011;19031;51.400;6.770;2024-01-10T07:22:16;22.58;;;7.95;;
32613;SDS011;19031;51.400;6.770;2024-01-10T07:24:43;21.92;;;6.88;;
32613;SDS011;19031;51.400;6.770;2024-01-10T07:27:09;20.42;;;7.65;;
32613;SDS011;19031;51.400;6.770;2024-01-10T07:29:34;19.35;;;7.47;;
32613;SDS011;19031;51.400;6.770;2024-01-10T07:32:00;16.08;;;7.28;;
32613;SDS011;19031;51.400;6.770;2024-01-10T07:34:26;16.17;;;7.82;;
32613;SDS011;19031;51.400;6.770;2024-01-10T07:36:51;16.85;;;7.63;;
32613;SDS011;19031;51.400;6.770;2024-01-10T07:39:19;25.55;;;8.25;;
32613;SDS011;19031;51.400;6.770;2024-01-10T07:41:44;20.65;;;7.10;;
32613;SDS011;19031;51.400;6.770;2024-01-10T07:44:10;18.27;;;8.07;;
32613;SDS011;19031;51.400;6.770;2024-01-10T07:46:36;16.67;;;7.03;;
32613;SDS011;19031;51.400;6.770;2024-01-10T07:49:05;22.80;;;8.07;;
32613;SDS011;19031;51.400;6.770;2024-01-10T07:51:30;20.23;;;8.75;;
32613;SDS011;19031;51.400;6.770;2024-01-10T07:53:57;18.15;;;8.00;;
32613;SDS011;19031;51.400;6.770;2024-01-10T07:56:24;19.58;;;8.02;;
32613;SDS011;19031;51.400;6.770;2024-01-10T07:58:49;14.23;;;6.45;;
32613;SDS011;19031;51.400;6.770;2024-01-10T08:01:16;20.55;;;8.32;;
32613;SDS011;19031;51.400;6.770;2024-01-10T08:03:42;18.40;;;7.80;;
32613;SDS011;19031;51.400;6.770;2024-01-10T08:06:08;18.15;;;8.45;;
32613;SDS011;19031;51.400;6.770;2024-01-10T08:08:35;20.23;;;7.50;;
32613;SDS011;19031;51.400;6.770;2024-01-10T08:11:01;15.60;;;6.80;;
32613;SDS011;19031;51.400;6.770;2024-01-10T08:13:27;16.05;;;6.93;;
32613;SDS011;19031;51.400;6.770;2024-01-10T08:15:53;22.65;;;8.77;;
32613;SDS011;19031;51.400;6.770;2024-01-10T08:18:19;21.40;;;8.43;;
32613;SDS011;19031;51.400;6.770;2024-01-10T08:20:45;20.13;;;7.97;;
32613;SDS011;19031;51.400;6.770;2024-01-10T08:23:10;19.77;;;8.80;;
32613;SDS011;19031;51.400;6.770;2024-01-10T08:25:36;19.85;;;9.07;;
32613;SDS011;19031;51.400;6.770;2024-01-10T08:28:03;22.00;;;9.02;;
32613;SDS011;19031;51.400;6.770;2024-01-10T08:30:29;22.45;;;8.43;;
32613;SDS011;19031;51.400;6.770;2024-01-10T08:32:54;22.35;;;8.45;;
32613;SDS011;19031;51.400;6.770;2024-01-10T08:35:20;17.70;;;8.65;;
32613;SDS011;19031;51.400;6.770;2024-01-10T08:37:45;24.55;;;9.25;;
32613;SDS011;19031;51.400;6.770;2024-01-10T08:40:11;18.70;;;9.35;;
32613;SDS011;19031;51.400;6.770;2024-01-10T08:42:40;20.70;;;9.23;;
32613;SDS011;19031;51.400;6.770;2024-01-10T08:45:07;23.88;;;8.52;;
32613;SDS011;19031;51.400;6.770;2024-01-10T08:47:35;24.13;;;9.45;;
32613;SDS011;19031;51.400;6.770;2024-01-10T08:50:02;21.85;;;8.57;;
32613;SDS011;19031;51.400;6.770;2024-01-10T08:52:30;19.20;;;9.45;;
32613;SDS011;19031;51.400;6.770;2024-01-10T08:54:56;24.33;;;9.38;;
32613;SDS011;19031;51.400;6.770;2024-01-10T08:57:22;26.60;;;10.02;;
32613;SDS011;19031;51.400;6.770;2024-01-10T08:59:47;24.17;;;7.93;;
32613;SDS011;19031;51.400;6.770;2024-01-10T09:02:13;27.52;;;8.60;;
32613;SDS011;19031;51.400;6.770;2024-01-10T09:04:39;24.40;;;9.48;;
32613;SDS011;19031;51.400;6.770;2024-01-10T09:07:05;30.60;;;9.27;;
32613;SDS011;19031;51.400;6.770;2024-01-10T09:09:31;18.35;;;8.52;;
32613;SDS011;19031;51.400;6.770;2024-01-10T09:11:57;25.85;;;9.70;;
32613;SDS011;19031;51.400;6.770;2024-01-10T09:14:23;24.23;;;10.38;;
32613;SDS011;19031;51.400;6.770;2024-01-10T09:16:48;26.73;;;9.73;;
32613;SDS011;19031;51.400;6.770;2024-01-10T09:19:14;19.13;;;9.15;;
32613;SDS011;19031;51.400;6.770;2024-01-10T09:21:40;25.42;;;10.63;;
32613;SDS011;19031;51.400;6.770;2024-01-10T09:24:05;23.17;;;9.90;;
32613;SDS011;19031;51.400;6.770;2024-01-10T09:26:34;23.30;;;9.13;;
32613;SDS011;19031;51.400;6.770;2024-01-10T09:28:59;22.02;;;9.75;;
32613;SDS011;19031;51.400;6.770;2024-01-10T09:31:25;26.95;;;10.88;;
32613;SDS011;19031;51.400;6.770;2024-01-10T09:33:51;28.00;;;10.93;;
32613;SDS011;19031;51.400;6.770;2024-01-10T09:36:16;24.42;;;9.95;;
32613;SDS011;19031;51.400;6.770;2024-01-10T09:38:42;27.13;;;10.68;;
32613;SDS011;19031;51.400;6.770;2024-01-10T09:41:07;24.88;;;10.50;;
32613;SDS011;19031;51.400;6.770;2024-01-10T09:43:36;26.20;;;11.73;;
32613;SDS011;19031;51.400;6.770;2024-01-10T09:46:01;25.80;;;10.93;;
32613;SDS011;19031;51.400;6.770;2024-01-10T09:48:28;24.25;;;10.48;;
32613;SDS011;19031;51.400;6.770;2024-01-10T09:50:54;27.05;;;11.27;;
32613;SDS011;19031;51.400;6.770;2024-01-10T09:53:27;29.88;;;10.23;;
32613;SDS011;19031;51.400;6.770;2024-01-10T09:55:56;29.67;;;10.10;;
32613;SDS011;19031;51.400;6.770;2024-01-10T09:58:24;25.40;;;10.77;;
32613;SDS011;19031;51.400;6.770;2024-01-10T10:00:50;23.75;;;10.13;;
32613;SDS011;19031;51.400;6.770;2024-01-10T10:03:17;26.65;;;11.20;;
32613;SDS011;19031;51.400;6.770;2024-01-10T10:05:43;38.15;;;10.90;;
32613;SDS011;19031;51.400;6.770;2024-01-10T10:08:13;23.95;;;10.02;;
32613;SDS011;19031;51.400;6.770;2024-01-10T10:10:50;30.63;;;12.02;;
32613;SDS011;19031;51.400;6.770;2024-01-10T10:13:25;24.67;;;11.63;;
32613;SDS011;19031;51.400;6.770;2024-01-10T10:15:59;29.80;;;11.82;;
32613;SDS011;19031;51.400;6.770;2024-01-10T10:18:29;37.25;;;12.48;;
32613;SDS011;19031;51.400;6.770;2024-01-10T10:21:06;29.45;;;11.18;;
32613;SDS011;19031;51.400;6.770;2024-01-10T10:23:39;29.15;;;11.82;;
32613;SDS011;19031;51.400;6.770;2024-01-10T10:26:11;25.58;;;11.57;;
32613;SDS011;19031;51.400;6.770;2024-01-10T10:28:48;30.63;;;11.80;;
32613;SDS011;19031;51.400;6.770;2024-01-10T10:31:15;31.15;;;11.18;;
32613;SDS011;19031;51.400;6.770;2024-01-10T10:33:42;22.60;;;10.95;;
32613;SDS011;19031;51.400;6.770;2024-01-10T10:36:08;27.30;;;11.55;;
32613;SDS011;19031;51.400;6.770;2024-01-10T10:38:34;35.35;;;13.30;;
32613;SDS011;19031;51.400;6.770;2024-01-10T10:41:02;26.25;;;12.32;;
32613;SDS011;19031;51.400;6.770;2024-01-10T10:43:33;32.83;;;12.07;;
32613;SDS011;19031;51.400;6.770;2024-01-10T10:46:06;26.13;;;12.60;;
32613;SDS011;19031;51.400;6.770;2024-01-10T10:48:33;31.52;;;12.45;;
32613;SDS011;19031;51.400;6.770;2024-01-10T10:51:07;26.08;;;11.75;;
32613;SDS011;19031;51.400;6.770;2024-01-10T10:53:35;25.10;;;11.13;;
32613;SDS011;19031;51.400;6.770;2024-01-10T10:56:03;26.23;;;12.48;;
32613;SDS011;19031;51.400;6.770;2024-01-10T10:58:33;23.10;;;10.57;;
32613;SDS011;19031;51.400;6.770;2024-01-10T11:01:06;26.00;;;11.82;;
32613;SDS011;19031;51.400;6.770;2024-01-10T11:03:37;21.42;;;11.13;;
32613;SDS011;19031;51.400;6.770;2024-01-10T11:06:05;27.33;;;11.82;;
32613;SDS011;19031;51.400;6.770;2024-01-10T11:08:42;28.80;;;11.88;;
32613;SDS011;19031;51.400;6.770;2024-01-10T11:12:00;28.30;;;13.02;;
32613;SDS011;19031;51.400;6.770;2024-01-10T11:16:48;22.67;;;12.02;;
32613;SDS011;19031;51.400;6.770;2024-01-10T11:19:53;31.23;;;12.13;;
32613;SDS011;19031;51.400;6.770;2024-01-10T11:25:40;28.48;;;13.20;;
32613;SDS011;19031;51.400;6.770;2024-01-10T11:28:06;27.90;;;12.38;;
32613;SDS011;19031;51.400;6.770;2024-01-10T11:30:35;27.88;;;12.20;;
32613;SDS011;19031;51.400;6.770;2024-01-10T11:33:30;23.77;;;11.88;;
32613;SDS011;19031;51.400;6.770;2024-01-10T11:36:17;22.58;;;11.30;;
32613;SDS011;19031;51.400;6.770;2024-01-10T11:39:05;32.55;;;13.52;;
32613;SDS011;19031;51.400;6.770;2024-01-10T11:46:45;28.90;;;12.57;;
32613;SDS011;19031;51.400;6.770;2024-01-10T11:49:16;31.08;;;13.95;;
32613;SDS011;19031;51.400;6.770;2024-01-10T11:51:44;29.30;;;12.38;;
32613;SDS011;19031;51.400;6.770;2024-01-10T11:54:11;27.42;;;11.77;;
32613;SDS011;19031;51.400;6.770;2024-01-10T11:59:07;28.73;;;12.27;;
32613;SDS011;19031;51.400;6.770;2024-01-10T12:01:35;31.58;;;13.00;;
32613;SDS011;19031;51.400;6.770;2024-01-10T12:04:01;35.58;;;14.02;;
32613;SDS011;19031;51.400;6.770;2024-01-10T12:06:28;28.02;;;13.65;;
32613;SDS011;19031;51.400;6.770;2024-01-10T12:08:55;30.15;;;13.48;;
32613;SDS011;19031;51.400;6.770;2024-01-10T12:11:21;31.60;;;14.15;;
32613;SDS011;19031;51.400;6.770;2024-01-10T12:13:47;25.88;;;12.32;;
32613;SDS011;19031;51.400;6.770;2024-01-10T12:16:13;29.90;;;14.77;;
32613;SDS011;19031;51.400;6.770;2024-01-10T12:18:39;31.42;;;12.95;;
32613;SDS011;19031;51.400;6.770;2024-01-10T12:21:08;28.73;;;13.07;;
32613;SDS011;19031;51.400;6.770;2024-01-10T12:23:36;32.92;;;12.77;;
32613;SDS011;19031;51.400;6.770;2024-01-10T12:26:03;28.05;;;13.00;;
32613;SDS011;19031;51.400;6.770;2024-01-10T12:28:32;31.80;;;13.68;;
32613;SDS011;19031;51.400;6.770;2024-01-10T12:31:01;32.38;;;13.20;;
32613;SDS011;19031;51.400;6.770;2024-01-10T12:33:28;34.33;;;12.63;;
32613;SDS011;19031;51.400;6.770;2024-01-10T12:36:07;29.75;;;13.07;;
32613;SDS011;19031;51.400;6.770;2024-01-10T12:38:37;31.75;;;13.10;;
32613;SDS011;19031;51.400;6.770;2024-01-10T12:41:04;29.48;;;12.50;;
32613;SDS011;19031;51.400;6.770;2024-01-10T12:43:30;28.27;;;12.68;;
32613;SDS011;19031;51.400;6.770;2024-01-10T12:46:09;33.97;;;13.10;;
32613;SDS011;19031;51.400;6.770;2024-01-10T12:48:36;31.10;;;12.40;;
32613;SDS011;19031;51.400;6.770;2024-01-10T12:51:09;26.42;;;13.60;;
32613;SDS011;19031;51.400;6.770;2024-01-10T12:53:42;30.27;;;13.00;;
32613;SDS011;19031;51.400;6.770;2024-01-10T12:56:09;35.95;;;15.05;;
32613;SDS011;19031;51.400;6.770;2024-01-10T12:58:39;32.80;;;13.10;;
32613;SDS011;19031;51.400;6.770;2024-01-10T13:01:08;29.42;;;12.10;;
32613;SDS011;19031;51.400;6.770;2024-01-10T13:03:34;34.28;;;14.43;;
32613;SDS011;19031;51.400;6.770;2024-01-10T13:06:00;28.52;;;13.68;;
32613;SDS011;19031;51.400;6.770;2024-01-10T13:08:26;31.33;;;14.07;;
32613;SDS011;19031;51.400;6.770;2024-01-10T13:10:52;35.00;;;14.27;;
32613;SDS011;19031;51.400;6.770;2024-01-10T13:13:19;34.92;;;14.95;;
32613;SDS011;19031;51.400;6.770;2024-01-10T13:15:46;35.92;;;14.43;;
32613;SDS011;19031;51.400;6.770;2024-01-10T13:18:15;29.10;;;14.18;;
32613;SDS011;19031;51.400;6.770;2024-01-10T13:20:44;36.17;;;14.35;;
32613;SDS011;19031;51.400;6.770;2024-01-10T13:23:10;33.20;;;12.88;;
32613;SDS011;19031;51.400;6.770;2024-01-10T13:25:36;31.92;;;13.80;;
32613;SDS011;19031;51.400;6.770;2024-01-10T13:28:02;35.72;;;14.32;;
32613;SDS011;19031;51.400;6.770;2024-01-10T13:30:28;33.72;;;14.60;;
32613;SDS011;19031;51.400;6.770;2024-01-10T13:32:54;34.38;;;13.50;;
32613;SDS011;19031;51.400;6.770;2024-01-10T13:35:19;30.17;;;14.10;;
32613;SDS011;19031;51.400;6.770;2024-01-10T13:37:45;34.63;;;13.85;;
32613;SDS011;19031;51.400;6.770;2024-01-10T13:40:11;34.58;;;13.70;;
32613;SDS011;19031;51.400;6.770;2024-01-10T13:42:40;29.48;;;13.48;;
32613;SDS011;19031;51.400;6.770;2024-01-10T13:45:06;33.03;;;12.88;;
32613;SDS011;19031;51.400;6.770;2024-01-10T13:47:36;32.97;;;14.30;;
32613;SDS011;19031;51.400;6.770;2024-01-10T13:50:03;33.72;;;14.52;;
32613;SDS011;19031;51.400;6.770;2024-01-10T13:52:30;31.05;;;13.57;;
32613;SDS011;19031;51.400;6.770;2024-01-10T13:54:56;33.90;;;14.77;;
32613;SDS011;19031;51.400;6.770;2024-01-10T13:57:22;29.90;;;13.80;;
32613;SDS011;19031;51.400;6.770;2024-01-10T13:59:48;35.92;;;14.55;;
32613;SDS011;19031;51.400;6.770;2024-01-10T14:02:14;35.60;;;15.32;;
32613;SDS011;19031;51.400;6.770;2024-01-10T14:04:39;36.75;;;15.38;;
32613;SDS011;19031;51.400;6.770;2024-01-10T14:07:06;32.70;;;15.07;;
32613;SDS011;19031;51.400;6.770;2024-01-10T14:09:31;38.53;;;14.93;;
32613;SDS011;19031;51.400;6.770;2024-01-10T14:11:57;35.20;;;14.70;;
32613;SDS011;19031;51.400;6.770;2024-01-10T14:14:23;35.45;;;13.80;;
32613;SDS011;19031;51.400;6.770;2024-01-10T14:16:48;37.72;;;16.35;;
32613;SDS011;19031;51.400;6.770;2024-01-10T14:19:14;38.00;;;16.33;;
32613;SDS011;19031;51.400;6.770;2024-01-10T14:21:42;39.08;;;15.13;;
32613;SDS011;19031;51.400;6.770;2024-01-10T14:24:08;37.08;;;16.27;;
32613;SDS011;19031;51.400;6.770;2024-01-10T14:26:36;29.65;;;14.73;;
32613;SDS011;19031;51.400;6.770;2024-01-10T14:29:02;30.65;;;14.88;;
32613;SDS011;19031;51.400;6.770;2024-01-10T14:31:27;32.97;;;14.68;;
32613;SDS011;19031;51.400;6.770;2024-01-10T14:33:53;31.75;;;15.70;;
32613;SDS011;19031;51.400;6.770;2024-01-10T14:36:18;31.20;;;13.48;;
32613;SDS011;19031;51.400;6.770;2024-01-10T14:38:44;33.90;;;14.80;;
32613;SDS011;19031;51.400;6.770;2024-01-10T14:41:09;31.27;;;14.20;;
32613;SDS011;19031;51.400;6.770;2024-01-10T14:43:36;30.73;;;14.05;;